sensor_id;sensor_type;location;lat;lon;timestamp;pressure;altitude;pressure_sealevel;temperature;humidity
71465;BME280;59274;49.874;9.154;2022-07-29T00:00:28;100116.19;;;20.22;52.64
71465;BME280;59274;49.874;9.154;2022-07-29T00:02:53;100111.44;;;20.23;52.56
71465;BME280;59274;49.874;9.154;2022-07-29T00:05:19;100115.84;;;20.20;52.36
71465;BME280;59274;49.874;9.154;2022-07-29T00:07:45;100120.81;;;20.25;50.60
71465;BME280;59274;49.874;9.154;2022-07-29T00:10:10;100114.84;;;20.27;50.40
71465;BME280;59274;49.874;9.154;2022-07-29T00:12:35;100113.13;;;20.46;44.60
71465;BME280;59274;49.874;9.154;2022-07-29T00:15:01;100116.28;;;20.69;43.92
71465;BME280;59274;49.874;9.154;2022-07-29T00:17:27;100113.09;;;20.71;44.44
71465;BME280;59274;49.874;9.154;2022-07-29T00:19:52;100102.84;;;20.59;49.94
71465;BME280;59274;49.874;9.154;2022-07-29T00:22:19;100105.84;;;20.52;51.13
71465;BME280;59274;49.874;9.154;2022-07-29T00:24:47;100107.28;;;20.44;52.27
71465;BME280;59274;49.874;9.154;2022-07-29T00:27:12;100097.25;;;20.37;52.70
71465;BME280;59274;49.874;9.154;2022-07-29T00:29:38;100100.97;;;20.30;53.11
71465;BME280;59274;49.874;9.154;2022-07-29T00:32:03;100097.88;;;20.28;52.56
71465;BME280;59274;49.874;9.154;2022-07-29T00:34:29;100105.59;;;20.21;53.58
71465;BME280;59274;49.874;9.154;2022-07-29T00:37:13;100100.63;;;20.16;53.33
71465;BME280;59274;49.874;9.154;2022-07-29T00:39:39;100103.38;;;20.16;52.68
71465;BME280;59274;49.874;9.154;2022-07-29T00:42:05;100106.03;;;20.19;53.54
71465;BME280;59274;49.874;9.154;2022-07-29T00:44:30;100102.72;;;20.12;54.39
71465;BME280;59274;49.874;9.154;2022-07-29T00:46:56;100101.28;;;20.07;53.36
71465;BME280;59274;49.874;9.154;2022-07-29T00:49:22;100101.16;;;20.11;53.10
71465;BME280;59274;49.874;9.154;2022-07-29T00:51:48;100105.47;;;20.12;53.73
71465;BME280;59274;49.874;9.154;2022-07-29T00:54:14;100098.41;;;20.11;53.07
71465;BME280;59274;49.874;9.154;2022-07-29T00:56:39;100104.81;;;20.08;53.21
71465;BME280;59274;49.874;9.154;2022-07-29T00:59:05;100111.41;;;19.98;54.53
71465;BME280;59274;49.874;9.154;2022-07-29T01:01:30;100111.88;;;19.96;54.87
71465;BME280;59274;49.874;9.154;2022-07-29T01:03:56;100113.06;;;19.95;54.24
71465;BME280;59274;49.874;9.154;2022-07-29T01:06:22;100112.31;;;19.94;53.02
71465;BME280;59274;49.874;9.154;2022-07-29T01:08:49;100113.94;;;19.92;52.94
71465;BME280;59274;49.874;9.154;2022-07-29T01:11:15;100110.06;;;19.89;52.82
71465;BME280;59274;49.874;9.154;2022-07-29T01:13:43;100114.06;;;19.88;53.84
71465;BME280;59274;49.874;9.154;2022-07-29T01:16:42;100119.88;;;19.90;53.88
71465;BME280;59274;49.874;9.154;2022-07-29T01:22:24;100115.84;;;19.95;53.83
71465;BME280;59274;49.874;9.154;2022-07-29T01:30:23;100124.09;;;19.95;53.51
71465;BME280;59274;49.874;9.154;2022-07-29T01:32:53;100120.13;;;19.96;52.75
71465;BME280;59274;49.874;9.154;2022-07-29T01:35:28;100117.69;;;19.98;53.46
71465;BME280;59274;49.874;9.154;2022-07-29T01:38:07;100121.09;;;19.89;52.18
71465;BME280;59274;49.874;9.154;2022-07-29T01:43:09;100126.19;;;19.91;52.90
71465;BME280;59274;49.874;9.154;2022-07-29T01:48:16;100136.31;;;19.81;53.13
71465;BME280;59274;49.874;9.154;2022-07-29T01:50:50;100133.22;;;19.79;53.33
71465;BME280;59274;49.874;9.154;2022-07-29T01:53:26;100129.03;;;19.75;53.91
71465;BME280;59274;49.874;9.154;2022-07-29T01:55:56;100123.72;;;19.68;55.07
71465;BME280;59274;49.874;9.154;2022-07-29T01:58:23;100115.88;;;19.66;51.72
71465;BME280;59274;49.874;9.154;2022-07-29T02:00:50;100124.38;;;19.72;51.19
71465;BME280;59274;49.874;9.154;2022-07-29T02:03:17;100126.34;;;19.71;52.90
71465;BME280;59274;49.874;9.154;2022-07-29T02:05:45;100126.69;;;19.73;51.18
71465;BME280;59274;49.874;9.154;2022-07-29T02:08:13;100122.75;;;19.74;51.74
71465;BME280;59274;49.874;9.154;2022-07-29T02:10:40;100126.47;;;19.68;52.82
71465;BME280;59274;49.874;9.154;2022-07-29T02:13:10;100121.59;;;19.59;53.26
71465;BME280;59274;49.874;9.154;2022-07-29T02:15:37;100119.81;;;19.52;53.20
71465;BME280;59274;49.874;9.154;2022-07-29T02:18:15;100110.34;;;19.53;53.54
71465;BME280;59274;49.874;9.154;2022-07-29T02:20:48;100115.50;;;19.51;52.61
71465;BME280;59274;49.874;9.154;2022-07-29T02:23:19;100119.47;;;19.34;52.81
71465;BME280;59274;49.874;9.154;2022-07-29T02:25:49;100125.16;;;19.27;52.88
71465;BME280;59274;49.874;9.154;2022-07-29T02:28:16;100120.75;;;19.17;52.94
71465;BME280;59274;49.874;9.154;2022-07-29T02:30:43;100119.38;;;19.09;52.35
71465;BME280;59274;49.874;9.154;2022-07-29T02:33:12;100114.41;;;19.04;54.04
71465;BME280;59274;49.874;9.154;2022-07-29T02:35:40;100120.41;;;18.99;54.16
71465;BME280;59274;49.874;9.154;2022-07-29T02:38:06;100115.84;;;18.92;54.30
71465;BME280;59274;49.874;9.154;2022-07-29T02:40:52;100123.25;;;18.79;55.24
71465;BME280;59274;49.874;9.154;2022-07-29T02:43:20;100123.59;;;18.65;56.20
71465;BME280;59274;49.874;9.154;2022-07-29T02:45:47;100119.47;;;18.57;56.08
71465;BME280;59274;49.874;9.154;2022-07-29T02:48:16;100119.06;;;18.58;54.75
71465;BME280;59274;49.874;9.154;2022-07-29T02:50:50;100120.28;;;18.37;56.52
71465;BME280;59274;49.874;9.154;2022-07-29T02:53:22;100118.56;;;18.27;57.15
71465;BME280;59274;49.874;9.154;2022-07-29T02:55:52;100120.09;;;18.28;56.96
71465;BME280;59274;49.874;9.154;2022-07-29T03:00:52;100113.03;;;18.11;57.77
71465;BME280;59274;49.874;9.154;2022-07-29T03:03:19;100110.50;;;18.00;57.55
71465;BME280;59274;49.874;9.154;2022-07-29T03:05:46;100111.44;;;17.94;58.65
71465;BME280;59274;49.874;9.154;2022-07-29T03:08:12;100108.06;;;17.86;58.30
71465;BME280;59274;49.874;9.154;2022-07-29T03:10:43;100104.53;;;17.86;57.69
71465;BME280;59274;49.874;9.154;2022-07-29T03:13:09;100100.81;;;17.76;58.57
71465;BME280;59274;49.874;9.154;2022-07-29T03:15:36;100097.78;;;17.71;59.03
71465;BME280;59274;49.874;9.154;2022-07-29T03:18:02;100102.94;;;17.69;59.20
71465;BME280;59274;49.874;9.154;2022-07-29T03:20:28;100106.81;;;17.71;59.62
71465;BME280;59274;49.874;9.154;2022-07-29T03:22:53;100106.94;;;17.64;59.80
71465;BME280;59274;49.874;9.154;2022-07-29T03:25:19;100103.97;;;17.55;59.94
71465;BME280;59274;49.874;9.154;2022-07-29T03:27:45;100105.44;;;17.59;58.00
71465;BME280;59274;49.874;9.154;2022-07-29T03:30:12;100100.69;;;17.64;59.15
71465;BME280;59274;49.874;9.154;2022-07-29T03:32:39;100102.31;;;17.61;59.70
71465;BME280;59274;49.874;9.154;2022-07-29T03:35:05;100102.13;;;17.48;59.87
71465;BME280;59274;49.874;9.154;2022-07-29T03:37:31;100098.00;;;17.40;59.91
71465;BME280;59274;49.874;9.154;2022-07-29T03:39:58;100103.13;;;17.38;60.69
71465;BME280;59274;49.874;9.154;2022-07-29T03:42:28;100092.13;;;17.38;60.95
71465;BME280;59274;49.874;9.154;2022-07-29T03:44:56;100089.81;;;17.37;61.53
71465;BME280;59274;49.874;9.154;2022-07-29T03:47:25;100089.81;;;17.37;62.10
71465;BME280;59274;49.874;9.154;2022-07-29T03:49:54;100092.13;;;17.38;62.50
71465;BME280;59274;49.874;9.154;2022-07-29T03:52:21;100093.69;;;17.39;62.16
71465;BME280;59274;49.874;9.154;2022-07-29T03:54:47;100096.31;;;17.46;62.13
71465;BME280;59274;49.874;9.154;2022-07-29T03:57:14;100093.25;;;17.41;61.10
71465;BME280;59274;49.874;9.154;2022-07-29T03:59:41;100094.16;;;17.34;59.35
71465;BME280;59274;49.874;9.154;2022-07-29T04:02:09;100095.03;;;17.31;59.29
71465;BME280;59274;49.874;9.154;2022-07-29T04:04:36;100095.53;;;17.26;60.81
71465;BME280;59274;49.874;9.154;2022-07-29T04:07:02;100094.16;;;17.14;61.09
71465;BME280;59274;49.874;9.154;2022-07-29T04:09:27;100094.69;;;17.06;62.10
71465;BME280;59274;49.874;9.154;2022-07-29T04:11:53;100101.09;;;16.99;61.90
71465;BME280;59274;49.874;9.154;2022-07-29T04:14:18;100093.63;;;17.00;62.51
71465;BME280;59274;49.874;9.154;2022-07-29T04:16:43;100089.91;;;16.90;62.19
71465;BME280;59274;49.874;9.154;2022-07-29T04:19:09;100084.69;;;16.96;62.84
71465;BME280;59274;49.874;9.154;2022-07-29T04:21:39;100094.03;;;16.98;63.54
71465;BME280;59274;49.874;9.154;2022-07-29T04:24:05;100097.94;;;17.01;63.18
71465;BME280;59274;49.874;9.154;2022-07-29T04:26:30;100086.03;;;17.07;63.23
71465;BME280;59274;49.874;9.154;2022-07-29T04:28:56;100089.66;;;17.04;63.21
71465;BME280;59274;49.874;9.154;2022-07-29T04:31:21;100086.53;;;17.02;62.87
71465;BME280;59274;49.874;9.154;2022-07-29T04:33:50;100090.06;;;17.03;63.40
71465;BME280;59274;49.874;9.154;2022-07-29T04:36:15;100095.13;;;17.04;63.52
71465;BME280;59274;49.874;9.154;2022-07-29T04:38:41;100088.50;;;17.02;63.93
71465;BME280;59274;49.874;9.154;2022-07-29T04:41:06;100095.47;;;17.06;64.43
71465;BME280;59274;49.874;9.154;2022-07-29T04:43:34;100091.13;;;17.09;64.48
71465;BME280;59274;49.874;9.154;2022-07-29T04:45:59;100096.06;;;17.17;63.30
71465;BME280;59274;49.874;9.154;2022-07-29T04:48:25;100098.25;;;17.26;63.71
71465;BME280;59274;49.874;9.154;2022-07-29T04:50:51;100096.13;;;17.34;64.10
71465;BME280;59274;49.874;9.154;2022-07-29T04:53:17;100098.31;;;17.42;63.93
71465;BME280;59274;49.874;9.154;2022-07-29T04:55:43;100096.94;;;17.54;62.82
71465;BME280;59274;49.874;9.154;2022-07-29T04:58:09;100098.00;;;17.80;62.56
71465;BME280;59274;49.874;9.154;2022-07-29T05:00:34;100101.78;;;17.86;62.08
71465;BME280;59274;49.874;9.154;2022-07-29T05:03:00;100096.09;;;17.96;60.18
71465;BME280;59274;49.874;9.154;2022-07-29T05:05:25;100091.13;;;18.08;60.21
71465;BME280;59274;49.874;9.154;2022-07-29T05:07:50;100095.53;;;18.21;59.83
71465;BME280;59274;49.874;9.154;2022-07-29T05:10:16;100090.56;;;18.32;59.56
71465;BME280;59274;49.874;9.154;2022-07-29T05:12:41;100102.19;;;18.56;60.39
71465;BME280;59274;49.874;9.154;2022-07-29T05:15:07;100100.66;;;18.71;59.37
71465;BME280;59274;49.874;9.154;2022-07-29T05:17:33;100093.66;;;18.83;58.89
71465;BME280;59274;49.874;9.154;2022-07-29T05:19:59;100099.34;;;18.92;58.17
71465;BME280;59274;49.874;9.154;2022-07-29T05:22:24;100101.31;;;18.92;58.20
71465;BME280;59274;49.874;9.154;2022-07-29T05:24:49;100101.06;;;18.86;58.25
71465;BME280;59274;49.874;9.154;2022-07-29T05:27:15;100109.09;;;18.81;58.02
71465;BME280;59274;49.874;9.154;2022-07-29T05:29:40;100109.25;;;18.73;57.51
71465;BME280;59274;49.874;9.154;2022-07-29T05:32:06;100111.75;;;18.68;58.47
71465;BME280;59274;49.874;9.154;2022-07-29T05:34:31;100104.94;;;18.72;57.58
71465;BME280;59274;49.874;9.154;2022-07-29T05:36:57;100109.31;;;18.70;58.70
71465;BME280;59274;49.874;9.154;2022-07-29T05:39:23;100122.41;;;18.66;58.04
71465;BME280;59274;49.874;9.154;2022-07-29T05:41:49;100116.31;;;18.58;58.39
71465;BME280;59274;49.874;9.154;2022-07-29T05:44:14;100124.00;;;18.47;59.43
71465;BME280;59274;49.874;9.154;2022-07-29T05:46:40;100124.44;;;18.46;59.89
71465;BME280;59274;49.874;9.154;2022-07-29T05:49:05;100117.53;;;18.37;60.65
71465;BME280;59274;49.874;9.154;2022-07-29T05:51:35;100130.34;;;18.44;60.23
71465;BME280;59274;49.874;9.154;2022-07-29T05:54:01;100122.00;;;18.48;60.01
71465;BME280;59274;49.874;9.154;2022-07-29T05:56:27;100130.06;;;18.58;59.50
71465;BME280;59274;49.874;9.154;2022-07-29T05:58:53;100136.00;;;18.73;57.63
71465;BME280;59274;49.874;9.154;2022-07-29T06:01:18;100138.41;;;18.87;58.70
71465;BME280;59274;49.874;9.154;2022-07-29T06:03:44;100134.09;;;19.02;57.28
71465;BME280;59274;49.874;9.154;2022-07-29T06:06:10;100135.53;;;19.23;56.24
71465;BME280;59274;49.874;9.154;2022-07-29T06:08:36;100145.19;;;19.44;56.57
71465;BME280;59274;49.874;9.154;2022-07-29T06:11:03;100136.72;;;19.67;55.33
71465;BME280;59274;49.874;9.154;2022-07-29T06:13:29;100138.53;;;19.86;54.32
71465;BME280;59274;49.874;9.154;2022-07-29T06:15:54;100134.81;;;20.06;54.36
71465;BME280;59274;49.874;9.154;2022-07-29T06:18:20;100138.13;;;20.13;54.09
71465;BME280;59274;49.874;9.154;2022-07-29T06:20:49;100143.00;;;20.22;53.51
71465;BME280;59274;49.874;9.154;2022-07-29T06:23:15;100145.88;;;20.31;52.66
71465;BME280;59274;49.874;9.154;2022-07-29T06:25:40;100139.03;;;20.61;52.51
71465;BME280;59274;49.874;9.154;2022-07-29T06:28:06;100137.69;;;20.91;50.48
71465;BME280;59274;49.874;9.154;2022-07-29T06:30:31;100129.22;;;21.20;49.49
71465;BME280;59274;49.874;9.154;2022-07-29T06:32:57;100124.56;;;21.29;49.12
71465;BME280;59274;49.874;9.154;2022-07-29T06:35:22;100127.66;;;21.53;47.53
71465;BME280;59274;49.874;9.154;2022-07-29T06:37:48;100125.56;;;21.57;47.49
71465;BME280;59274;49.874;9.154;2022-07-29T06:40:13;100128.31;;;21.79;47.35
71465;BME280;59274;49.874;9.154;2022-07-29T06:42:57;100123.81;;;21.72;48.03
71465;BME280;59274;49.874;9.154;2022-07-29T06:45:23;100126.16;;;21.83;47.15
71465;BME280;59274;49.874;9.154;2022-07-29T06:47:49;100124.31;;;21.80;46.85
71465;BME280;59274;49.874;9.154;2022-07-29T06:50:15;100132.56;;;21.71;45.24
71465;BME280;59274;49.874;9.154;2022-07-29T06:52:41;100136.00;;;21.84;45.51
71465;BME280;59274;49.874;9.154;2022-07-29T06:55:07;100134.28;;;21.99;44.63
71465;BME280;59274;49.874;9.154;2022-07-29T06:57:34;100130.53;;;22.15;44.33
71465;BME280;59274;49.874;9.154;2022-07-29T06:59:59;100132.72;;;22.20;44.97
71465;BME280;59274;49.874;9.154;2022-07-29T07:02:25;100136.91;;;22.34;45.59
71465;BME280;59274;49.874;9.154;2022-07-29T07:04:52;100136.63;;;22.41;46.37
71465;BME280;59274;49.874;9.154;2022-07-29T07:07:17;100134.06;;;22.55;44.17
71465;BME280;59274;49.874;9.154;2022-07-29T07:09:43;100139.19;;;22.66;43.24
71465;BME280;59274;49.874;9.154;2022-07-29T07:12:08;100133.41;;;22.82;44.33
71465;BME280;59274;49.874;9.154;2022-07-29T07:14:34;100135.72;;;22.84;42.91
71465;BME280;59274;49.874;9.154;2022-07-29T07:16:59;100142.34;;;22.95;43.25
71465;BME280;59274;49.874;9.154;2022-07-29T07:19:26;100138.94;;;22.82;42.76
71465;BME280;59274;49.874;9.154;2022-07-29T07:21:53;100143.34;;;22.71;42.84
71465;BME280;59274;49.874;9.154;2022-07-29T07:24:19;100147.31;;;22.51;44.48
71465;BME280;59274;49.874;9.154;2022-07-29T07:26:44;100151.59;;;22.52;42.76
71465;BME280;59274;49.874;9.154;2022-07-29T07:29:10;100151.13;;;22.45;42.39
71465;BME280;59274;49.874;9.154;2022-07-29T07:31:36;100153.13;;;22.44;42.49
71465;BME280;59274;49.874;9.154;2022-07-29T07:34:03;100149.81;;;22.27;42.07
71465;BME280;59274;49.874;9.154;2022-07-29T07:36:28;100150.13;;;22.30;43.13
71465;BME280;59274;49.874;9.154;2022-07-29T07:38:54;100148.44;;;22.32;42.92
71465;BME280;59274;49.874;9.154;2022-07-29T07:41:20;100149.31;;;22.51;42.91
71465;BME280;59274;49.874;9.154;2022-07-29T07:43:45;100156.44;;;22.70;41.77
71465;BME280;59274;49.874;9.154;2022-07-29T07:46:11;100153.53;;;22.74;40.82
71465;BME280;59274;49.874;9.154;2022-07-29T07:48:36;100150.78;;;22.83;42.52
71465;BME280;59274;49.874;9.154;2022-07-29T07:51:02;100151.44;;;22.96;40.31
71465;BME280;59274;49.874;9.154;2022-07-29T07:53:27;100155.13;;;23.02;40.61
71465;BME280;59274;49.874;9.154;2022-07-29T07:55:55;100157.94;;;23.11;40.51
71465;BME280;59274;49.874;9.154;2022-07-29T07:58:20;100158.25;;;23.13;40.54
71465;BME280;59274;49.874;9.154;2022-07-29T08:00:46;100159.63;;;23.09;40.51
71465;BME280;59274;49.874;9.154;2022-07-29T08:03:12;100158.41;;;23.19;41.41
71465;BME280;59274;49.874;9.154;2022-07-29T08:05:39;100158.09;;;23.26;40.55
71465;BME280;59274;49.874;9.154;2022-07-29T08:08:06;100160.38;;;23.09;41.05
71465;BME280;59274;49.874;9.154;2022-07-29T08:10:32;100157.16;;;23.11;41.69
71465;BME280;59274;49.874;9.154;2022-07-29T08:13:15;100151.63;;;23.01;40.61
71465;BME280;59274;49.874;9.154;2022-07-29T08:15:41;100153.78;;;23.16;40.92
71465;BME280;59274;49.874;9.154;2022-07-29T08:18:08;100147.63;;;23.21;39.82
71465;BME280;59274;49.874;9.154;2022-07-29T08:20:34;100152.84;;;23.10;40.88
71465;BME280;59274;49.874;9.154;2022-07-29T08:23:01;100155.00;;;23.24;41.17
71465;BME280;59274;49.874;9.154;2022-07-29T08:25:27;100156.41;;;23.47;40.18
71465;BME280;59274;49.874;9.154;2022-07-29T08:27:53;100153.34;;;23.45;39.29
71465;BME280;59274;49.874;9.154;2022-07-29T08:30:19;100160.44;;;23.55;40.38
71465;BME280;59274;49.874;9.154;2022-07-29T08:32:44;100149.19;;;23.67;41.21
71465;BME280;59274;49.874;9.154;2022-07-29T08:35:10;100151.63;;;23.84;41.49
71465;BME280;59274;49.874;9.154;2022-07-29T08:37:35;100158.09;;;23.99;40.33
71465;BME280;59274;49.874;9.154;2022-07-29T08:40:01;100160.41;;;24.00;40.14
71465;BME280;59274;49.874;9.154;2022-07-29T08:42:26;100164.53;;;24.14;40.30
71465;BME280;59274;49.874;9.154;2022-07-29T08:44:52;100163.63;;;24.08;38.71
71465;BME280;59274;49.874;9.154;2022-07-29T08:47:18;100163.94;;;23.92;39.39
71465;BME280;59274;49.874;9.154;2022-07-29T08:49:44;100160.84;;;23.99;41.41
71465;BME280;59274;49.874;9.154;2022-07-29T08:52:12;100161.75;;;24.14;40.42
71465;BME280;59274;49.874;9.154;2022-07-29T08:54:43;100161.25;;;24.34;39.71
71465;BME280;59274;49.874;9.154;2022-07-29T08:57:09;100171.28;;;24.31;39.88
71465;BME280;59274;49.874;9.154;2022-07-29T08:59:37;100176.69;;;24.26;40.75
71465;BME280;59274;49.874;9.154;2022-07-29T09:02:12;100171.25;;;24.40;39.82
71465;BME280;59274;49.874;9.154;2022-07-29T09:04:41;100170.06;;;24.23;40.32
71465;BME280;59274;49.874;9.154;2022-07-29T09:07:07;100166.47;;;24.41;40.50
71465;BME280;59274;49.874;9.154;2022-07-29T09:09:34;100161.91;;;24.62;39.79
71465;BME280;59274;49.874;9.154;2022-07-29T09:12:00;100161.44;;;24.63;38.42
71465;BME280;59274;49.874;9.154;2022-07-29T09:14:26;100160.84;;;24.83;40.52
71465;BME280;59274;49.874;9.154;2022-07-29T09:16:54;100162.97;;;24.97;39.81
71465;BME280;59274;49.874;9.154;2022-07-29T09:19:38;100164.00;;;25.23;39.79
71465;BME280;59274;49.874;9.154;2022-07-29T09:22:05;100157.22;;;25.24;39.21
71465;BME280;59274;49.874;9.154;2022-07-29T09:27:00;100153.81;;;25.06;40.27
71465;BME280;59274;49.874;9.154;2022-07-29T09:29:26;100152.63;;;24.98;39.05
71465;BME280;59274;49.874;9.154;2022-07-29T09:31:53;100147.22;;;25.18;39.18
71465;BME280;59274;49.874;9.154;2022-07-29T09:34:28;100144.47;;;25.32;39.17
71465;BME280;59274;49.874;9.154;2022-07-29T09:36:56;100144.13;;;25.40;40.56
71465;BME280;59274;49.874;9.154;2022-07-29T09:39:35;100138.63;;;25.69;40.83
71465;BME280;59274;49.874;9.154;2022-07-29T09:42:05;100139.59;;;25.81;38.23
71465;BME280;59274;49.874;9.154;2022-07-29T09:44:49;100141.44;;;25.84;39.38
71465;BME280;59274;49.874;9.154;2022-07-29T09:47:16;100139.88;;;25.68;39.47
71465;BME280;59274;49.874;9.154;2022-07-29T09:50:00;100138.81;;;25.80;39.25
71465;BME280;59274;49.874;9.154;2022-07-29T09:52:26;100141.44;;;25.84;40.03
71465;BME280;59274;49.874;9.154;2022-07-29T09:54:52;100137.41;;;25.70;38.89
71465;BME280;59274;49.874;9.154;2022-07-29T09:57:26;100137.66;;;25.72;39.62
71465;BME280;59274;49.874;9.154;2022-07-29T10:00:17;100134.78;;;25.66;39.90
71465;BME280;59274;49.874;9.154;2022-07-29T10:02:44;100131.53;;;25.68;40.53
71465;BME280;59274;49.874;9.154;2022-07-29T10:05:21;100137.81;;;25.54;40.58
71465;BME280;59274;49.874;9.154;2022-07-29T10:07:55;100134.34;;;25.44;41.17
71465;BME280;59274;49.874;9.154;2022-07-29T10:10:32;100135.34;;;25.56;41.16
71465;BME280;59274;49.874;9.154;2022-07-29T10:13:03;100128.44;;;25.66;40.68
71465;BME280;59274;49.874;9.154;2022-07-29T10:15:31;100122.91;;;25.81;40.88
71465;BME280;59274;49.874;9.154;2022-07-29T10:17:58;100132.47;;;25.80;39.81
71465;BME280;59274;49.874;9.154;2022-07-29T10:20:24;100123.97;;;25.83;39.82
71465;BME280;59274;49.874;9.154;2022-07-29T10:22:50;100120.97;;;25.87;40.41
71465;BME280;59274;49.874;9.154;2022-07-29T10:25:17;100117.41;;;26.01;39.22
71465;BME280;59274;49.874;9.154;2022-07-29T10:27:44;100110.41;;;26.05;39.65
71465;BME280;59274;49.874;9.154;2022-07-29T10:30:11;100121.25;;;26.33;39.07
71465;BME280;59274;49.874;9.154;2022-07-29T10:44:01;100108.94;;;27.55;39.17
71465;BME280;59274;49.874;9.154;2022-07-29T10:46:27;100117.22;;;27.76;39.70
71465;BME280;59274;49.874;9.154;2022-07-29T10:49:08;100114.50;;;28.13;38.45
71465;BME280;59274;49.874;9.154;2022-07-29T10:55:01;100116.50;;;28.43;37.23
71465;BME280;59274;49.874;9.154;2022-07-29T10:57:29;100119.06;;;28.41;37.42
71465;BME280;59274;49.874;9.154;2022-07-29T11:05:19;100109.84;;;28.04;38.04
71465;BME280;59274;49.874;9.154;2022-07-29T11:10:35;100104.06;;;28.44;37.65
71465;BME280;59274;49.874;9.154;2022-07-29T11:13:00;100107.72;;;28.56;37.52
71465;BME280;59274;49.874;9.154;2022-07-29T11:15:26;100101.75;;;27.75;36.99
71465;BME280;59274;49.874;9.154;2022-07-29T11:20:43;100096.34;;;27.97;37.44
71465;BME280;59274;49.874;9.154;2022-07-29T11:23:31;100093.78;;;28.25;36.87
71465;BME280;59274;49.874;9.154;2022-07-29T11:28:48;100093.50;;;28.65;37.01
71465;BME280;59274;49.874;9.154;2022-07-29T11:31:16;100095.31;;;28.63;35.17
71465;BME280;59274;49.874;9.154;2022-07-29T11:33:41;100093.50;;;28.65;35.62
71465;BME280;59274;49.874;9.154;2022-07-29T11:36:08;100088.31;;;28.84;35.25
71465;BME280;59274;49.874;9.154;2022-07-29T11:38:35;100087.38;;;29.09;35.57
71465;BME280;59274;49.874;9.154;2022-07-29T11:43:46;100077.88;;;28.42;36.47
71465;BME280;59274;49.874;9.154;2022-07-29T11:46:13;100076.94;;;28.99;37.38
71465;BME280;59274;49.874;9.154;2022-07-29T11:48:42;100077.44;;;29.03;37.18
71465;BME280;59274;49.874;9.154;2022-07-29T11:51:10;100067.66;;;29.46;35.89
71465;BME280;59274;49.874;9.154;2022-07-29T11:53:37;100071.25;;;29.75;35.41
71465;BME280;59274;49.874;9.154;2022-07-29T11:56:04;100065.38;;;30.23;34.55
71465;BME280;59274;49.874;9.154;2022-07-29T11:58:33;100060.75;;;30.53;33.75
71465;BME280;59274;49.874;9.154;2022-07-29T12:01:00;100061.63;;;30.84;32.26
71465;BME280;59274;49.874;9.154;2022-07-29T12:03:28;100038.63;;;30.91;31.84
71465;BME280;59274;49.874;9.154;2022-07-29T12:05:54;100043.59;;;31.20;32.61
71465;BME280;59274;49.874;9.154;2022-07-29T12:08:21;100036.72;;;31.57;31.76
71465;BME280;59274;49.874;9.154;2022-07-29T12:10:49;100040.75;;;31.67;31.39
71465;BME280;59274;49.874;9.154;2022-07-29T12:13:18;100028.63;;;31.47;30.89
71465;BME280;59274;49.874;9.154;2022-07-29T12:15:55;100038.94;;;31.99;30.47
71465;BME280;59274;49.874;9.154;2022-07-29T12:18:23;100042.25;;;32.27;29.79
71465;BME280;59274;49.874;9.154;2022-07-29T12:20:56;100048.81;;;32.06;29.57
71465;BME280;59274;49.874;9.154;2022-07-29T12:23:22;100039.69;;;31.70;30.68
71465;BME280;59274;49.874;9.154;2022-07-29T12:25:48;100039.78;;;31.59;30.88
71465;BME280;59274;49.874;9.154;2022-07-29T12:28:14;100035.28;;;31.44;30.31
71465;BME280;59274;49.874;9.154;2022-07-29T12:30:46;100045.94;;;32.17;31.35
71465;BME280;59274;49.874;9.154;2022-07-29T12:33:27;100042.09;;;32.63;29.83
71465;BME280;59274;49.874;9.154;2022-07-29T12:35:56;100028.50;;;31.94;30.05
71465;BME280;59274;49.874;9.154;2022-07-29T12:38:22;100032.59;;;32.23;29.76
71465;BME280;59274;49.874;9.154;2022-07-29T12:40:48;100026.47;;;32.68;29.15
71465;BME280;59274;49.874;9.154;2022-07-29T12:43:22;100016.09;;;32.57;28.46
71465;BME280;59274;49.874;9.154;2022-07-29T12:45:55;100025.25;;;31.90;29.73
71465;BME280;59274;49.874;9.154;2022-07-29T12:48:42;100017.91;;;32.54;29.50
71465;BME280;59274;49.874;9.154;2022-07-29T12:51:09;100024.53;;;32.08;29.17
71465;BME280;59274;49.874;9.154;2022-07-29T12:53:37;100017.09;;;31.51;30.50
71465;BME280;59274;49.874;9.154;2022-07-29T12:56:04;100016.59;;;31.17;31.52
71465;BME280;59274;49.874;9.154;2022-07-29T12:58:33;100019.97;;;30.99;31.10
71465;BME280;59274;49.874;9.154;2022-07-29T13:01:14;100007.44;;;30.59;32.05
71465;BME280;59274;49.874;9.154;2022-07-29T13:03:55;99997.91;;;31.61;30.05
71465;BME280;59274;49.874;9.154;2022-07-29T13:06:40;99996.47;;;32.33;29.15
71465;BME280;59274;49.874;9.154;2022-07-29T13:09:18;99999.41;;;33.21;28.43
71465;BME280;59274;49.874;9.154;2022-07-29T13:11:51;99991.03;;;34.18;26.96
71465;BME280;59274;49.874;9.154;2022-07-29T13:14:38;100002.19;;;32.64;28.51
71465;BME280;59274;49.874;9.154;2022-07-29T13:17:17;99999.31;;;32.03;30.73
71465;BME280;59274;49.874;9.154;2022-07-29T13:19:52;99996.38;;;31.24;30.39
71465;BME280;59274;49.874;9.154;2022-07-29T13:22:23;99993.50;;;30.94;31.19
71465;BME280;59274;49.874;9.154;2022-07-29T13:24:56;99992.22;;;30.32;31.27
71465;BME280;59274;49.874;9.154;2022-07-29T13:27:27;99984.66;;;30.05;32.80
71465;BME280;59274;49.874;9.154;2022-07-29T13:29:53;99988.75;;;29.81;34.19
71465;BME280;59274;49.874;9.154;2022-07-29T13:32:22;99990.78;;;29.81;34.18
71465;BME280;59274;49.874;9.154;2022-07-29T13:34:48;99994.72;;;30.99;33.49
71465;BME280;59274;49.874;9.154;2022-07-29T13:37:14;99996.44;;;32.08;31.68
71465;BME280;59274;49.874;9.154;2022-07-29T13:39:39;99986.25;;;31.16;30.84
71465;BME280;59274;49.874;9.154;2022-07-29T13:42:06;99993.44;;;30.48;32.63
71465;BME280;59274;49.874;9.154;2022-07-29T13:44:32;99994.00;;;30.29;32.23